Time;durP1;ratioP1;P1;durP2;ratioP2;P2;SDS_P1;SDS_P2;PMS_P1;PMS_P2;Temp;Humidity;BMP_temperature;BMP_pressure;BME280_temperature;BME280_humidity;BME280_pressure;Samples;Min_cycle;Max_cycle;Signal;HPM_P1;HPM_P2
2023/02/11 00:00:40;;;;;;;53.78;22.33;;;;;;;;;;4987102;28;20344;-65
2023/02/11 00:03:06;;;;;;;45.28;19.77;;;;;;;;;;4992007;28;20037;-65
2023/02/11 00:05:31;;;;;;;49.10;19.52;;;;;;;;;;4988271;28;20026;-66
2023/02/11 00:07:56;;;;;;;47.42;20.05;;;;;;;;;;4989100;28;20025;-65
2023/02/11 00:10:21;;;;;;;44.00;19.10;;;;;;;;;;4987479;28;20018;-66
2023/02/11 00:12:46;;;;;;;46.80;19.38;;;;;;;;;;4993577;28;20781;-65
2023/02/11 00:15:11;;;;;;;49.53;21.37;;;;;;;;;;4987247;28;20022;-66
2023/02/11 00:17:37;;;;;;;48.87;20.70;;;;;;;;;;4987884;28;20638;-65
2023/02/11 00:20:02;;;;;;;46.10;20.57;;;;;;;;;;4987338;28;20277;-66
2023/02/11 00:22:27;;;;;;;43.17;20.77;;;;;;;;;;4986810;28;20352;-65
2023/02/11 00:24:53;;;;;;;41.38;18.45;;;;;;;;;;4988944;28;20483;-66
2023/02/11 00:27:18;;;;;;;41.63;17.80;;;;;;;;;;4986861;28;20472;-65
2023/02/11 00:29:43;;;;;;;42.50;20.10;;;;;;;;;;4986155;28;20458;-65
2023/02/11 00:32:08;;;;;;;43.70;19.27;;;;;;;;;;4990188;28;20281;-66
2023/02/11 00:34:34;;;;;;;52.28;20.27;;;;;;;;;;4991439;28;20446;-65
2023/02/11 00:37:00;;;;;;;45.85;22.17;;;;;;;;;;4988686;28;22119;-65
2023/02/11 00:39:25;;;;;;;43.95;18.60;;;;;;;;;;4991207;28;20084;-65
2023/02/11 00:41:50;;;;;;;49.55;20.48;;;;;;;;;;4994883;28;20107;-65
2023/02/11 00:44:15;;;;;;;47.77;20.13;;;;;;;;;;4992131;28;20530;-65
2023/02/11 00:46:41;;;;;;;51.00;20.08;;;;;;;;;;4990182;28;20339;-65
2023/02/11 00:49:06;;;;;;;49.78;20.38;;;;;;;;;;4993057;28;20033;-65
2023/02/11 00:51:31;;;;;;;45.10;21.07;;;;;;;;;;4995092;28;20429;-65
2023/02/11 00:53:56;;;;;;;47.65;19.50;;;;;;;;;;4995704;28;20435;-65
2023/02/11 00:56:21;;;;;;;42.72;20.05;;;;;;;;;;4994162;28;20026;-65
2023/02/11 00:58:46;;;;;;;43.70;18.63;;;;;;;;;;4993136;28;20053;-65
2023/02/11 01:01:12;;;;;;;44.47;19.53;;;;;;;;;;4995191;28;20381;-65
2023/02/11 01:03:37;;;;;;;45.70;20.73;;;;;;;;;;4996511;28;20351;-65
2023/02/11 01:06:03;;;;;;;44.10;17.42;;;;;;;;;;4996603;28;20022;-66
2023/02/11 01:08:28;;;;;;;41.92;20.35;;;;;;;;;;4992181;28;20018;-65
2023/02/11 01:10:58;;;;;;;54.90;21.90;;;;;;;;;;4994927;28;20073;-65
2023/02/11 01:13:24;;;;;;;49.78;21.83;;;;;;;;;;4991038;28;20434;-65
2023/02/11 01:15:49;;;;;;;48.88;21.23;;;;;;;;;;4992478;28;20118;-65
2023/02/11 01:18:14;;;;;;;51.47;23.75;;;;;;;;;;4992130;28;20057;-65
2023/02/11 01:20:39;;;;;;;53.90;22.05;;;;;;;;;;4993605;28;20073;-65
2023/02/11 01:23:05;;;;;;;50.20;20.47;;;;;;;;;;4991852;28;20054;-65
2023/02/11 01:25:30;;;;;;;45.20;19.40;;;;;;;;;;4994210;28;20273;-65
2023/02/11 01:27:55;;;;;;;47.75;19.27;;;;;;;;;;4993368;28;20061;-65
2023/02/11 01:30:20;;;;;;;43.63;20.08;;;;;;;;;;4996496;28;20019;-65
2023/02/11 01:32:45;;;;;;;45.10;20.02;;;;;;;;;;4990905;28;20046;-65
2023/02/11 01:35:10;;;;;;;47.83;21.48;;;;;;;;;;4992373;28;20036;-67
2023/02/11 01:37:36;;;;;;;53.15;22.60;;;;;;;;;;4990060;28;20026;-67
2023/02/11 01:40:02;;;;;;;46.08;21.75;;;;;;;;;;4993339;28;20022;-65
2023/02/11 01:42:27;;;;;;;49.22;21.98;;;;;;;;;;4988920;28;20475;-66
2023/02/11 01:44:53;;;;;;;50.97;22.00;;;;;;;;;;4989391;28;20026;-66
2023/02/11 01:47:19;;;;;;;55.05;22.45;;;;;;;;;;4987135;28;20026;-66
2023/02/11 01:49:46;;;;;;;54.55;23.40;;;;;;;;;;4989729;28;20451;-65
2023/02/11 01:52:11;;;;;;;50.95;21.83;;;;;;;;;;4991381;28;20049;-66
2023/02/11 01:57:26;;;;;;;45.30;19.50;;;;;;;;;;4991468;28;20828;-66
2023/02/11 01:59:55;;;;;;;44.13;18.85;;;;;;;;;;4989755;28;20525;-66
2023/02/11 02:02:23;;;;;;;41.90;19.30;;;;;;;;;;4988302;28;20023;-66
2023/02/11 02:04:59;;;;;;;53.10;22.00;;;;;;;;;;4992507;28;20022;-65
2023/02/11 02:07:31;;;;;;;51.90;23.85;;;;;;;;;;4989800;28;20034;-66
2023/02/11 02:10:03;;;;;;;51.30;26.67;;;;;;;;;;4990661;28;20406;-65
2023/02/11 02:12:28;;;;;;;50.42;23.38;;;;;;;;;;4995602;28;20022;-65
2023/02/11 02:15:10;;;;;;;52.53;23.75;;;;;;;;;;4991932;28;20023;-65
2023/02/11 02:17:39;;;;;;;57.33;23.45;;;;;;;;;;4988779;28;20019;-66
2023/02/11 02:20:13;;;;;;;56.17;23.83;;;;;;;;;;4990931;28;20033;-66
2023/02/11 02:22:58;;;;;;;60.03;23.83;;;;;;;;;;4988112;28;20030;-68
2023/02/11 02:25:42;;;;;;;54.50;22.50;;;;;;;;;;4987201;28;20034;-66
2023/02/11 02:28:18;;;;;;;51.13;22.10;;;;;;;;;;4990480;28;20026;-66
2023/02/11 02:30:53;;;;;;;56.00;23.63;;;;;;;;;;4992939;28;20057;-67
2023/02/11 02:33:31;;;;;;;54.47;23.48;;;;;;;;;;4989897;28;20018;-66
2023/02/11 02:36:11;;;;;;;59.58;26.95;;;;;;;;;;4992377;28;20019;-65
2023/02/11 02:38:39;;;;;;;57.60;25.90;;;;;;;;;;4989336;28;20022;-66
2023/02/11 02:41:08;;;;;;;58.45;27.13;;;;;;;;;;4987684;28;20026;-66
2023/02/11 02:43:35;;;;;;;64.55;25.23;;;;;;;;;;4992619;28;20109;-66
2023/02/11 02:46:18;;;;;;;54.55;22.40;;;;;;;;;;4991039;28;20362;-66
2023/02/11 02:48:44;;;;;;;50.70;17.98;;;;;;;;;;4988142;28;20376;-66
2023/02/11 02:51:09;;;;;;;46.60;20.75;;;;;;;;;;4993117;28;20022;-65
2023/02/11 02:53:50;;;;;;;54.65;21.30;;;;;;;;;;4988119;28;20029;-65
2023/02/11 02:56:21;;;;;;;45.22;20.98;;;;;;;;;;4986869;28;20274;-65
2023/02/11 02:58:52;;;;;;;49.20;18.98;;;;;;;;;;4989874;28;20018;-66
2023/02/11 03:01:23;;;;;;;49.80;22.00;;;;;;;;;;4987917;28;20025;-65
2023/02/11 03:03:58;;;;;;;51.67;22.60;;;;;;;;;;4990536;28;20021;-65
2023/02/11 03:06:24;;;;;;;48.65;20.67;;;;;;;;;;4990562;28;20064;-66
2023/02/11 03:08:53;;;;;;;54.43;20.93;;;;;;;;;;4990185;28;20420;-66
2023/02/11 03:11:19;;;;;;;46.20;21.25;;;;;;;;;;4991466;28;20312;-66
2023/02/11 03:13:46;;;;;;;42.63;18.95;;;;;;;;;;4992362;28;20474;-65
2023/02/11 03:16:17;;;;;;;43.25;20.33;;;;;;;;;;4993000;28;20022;-65
2023/02/11 03:18:45;;;;;;;46.80;20.17;;;;;;;;;;4985762;28;20774;-67
2023/02/11 03:21:10;;;;;;;45.47;20.40;;;;;;;;;;4988083;28;20015;-65
2023/02/11 03:23:41;;;;;;;56.00;23.08;;;;;;;;;;4988441;28;20025;-65
2023/02/11 03:26:20;;;;;;;54.25;24.10;;;;;;;;;;4991268;28;20029;-65
2023/02/11 03:28:50;;;;;;;52.13;24.77;;;;;;;;;;4991023;28;20026;-66
2023/02/11 03:31:21;;;;;;;54.58;26.33;;;;;;;;;;4987597;28;20019;-65
2023/02/11 03:33:46;;;;;;;60.17;25.00;;;;;;;;;;4988539;28;20497;-66
2023/02/11 03:36:14;;;;;;;50.35;21.40;;;;;;;;;;4987065;28;20021;-64
2023/02/11 03:38:43;;;;;;;54.33;21.75;;;;;;;;;;4991782;28;20707;-65
2023/02/11 03:41:10;;;;;;;50.90;21.63;;;;;;;;;;4992133;28;20092;-65
2023/02/11 03:43:43;;;;;;;34.50;12.90;;;;;;;;;;4988413;28;20109;-64
2023/02/11 03:46:09;;;;;;;46.55;19.10;;;;;;;;;;4988989;28;20054;-64
2023/02/11 03:48:42;;;;;;;48.58;16.27;;;;;;;;;;4986230;28;20029;-64
2023/02/11 03:51:09;;;;;;;42.28;20.42;;;;;;;;;;4992242;28;20125;-64
2023/02/11 03:53:36;;;;;;;59.35;21.98;;;;;;;;;;4989089;28;21964;-64
2023/02/11 03:56:03;;;;;;;52.03;21.40;;;;;;;;;;4993808;28;20056;-64
2023/02/11 03:58:29;;;;;;;50.45;20.60;;;;;;;;;;4989632;28;20022;-64
2023/02/11 04:00:54;;;;;;;50.10;21.15;;;;;;;;;;4993412;28;20018;-64
2023/02/11 04:03:19;;;;;;;24.53;8.97;;;;;;;;;;4988241;28;20479;-64
2023/02/11 04:05:44;;;;;;;55.30;20.83;;;;;;;;;;4991128;28;20273;-65
2023/02/11 04:08:09;;;;;;;43.17;19.80;;;;;;;;;;4996798;28;20393;-65
2023/02/11 04:10:34;;;;;;;51.03;22.77;;;;;;;;;;4993282;28;20289;-65
2023/02/11 04:13:00;;;;;;;55.72;21.83;;;;;;;;;;4991803;28;20034;-65
2023/02/11 04:15:25;;;;;;;45.13;17.02;;;;;;;;;;4992012;28;20102;-65
2023/02/11 04:17:50;;;;;;;54.60;22.67;;;;;;;;;;4991504;28;20125;-65
2023/02/11 04:20:15;;;;;;;52.20;19.55;;;;;;;;;;4997557;28;20292;-65
2023/02/11 04:22:41;;;;;;;53.63;21.15;;;;;;;;;;4988768;28;20019;-64
2023/02/11 04:25:06;;;;;;;60.22;26.58;;;;;;;;;;4987513;28;20018;-65
2023/02/11 04:27:31;;;;;;;36.20;14.10;;;;;;;;;;4992727;28;20027;-65
2023/02/11 04:29:56;;;;;;;43.80;16.93;;;;;;;;;;4993602;28;20018;-65
2023/02/11 04:32:22;;;;;;;41.03;16.77;;;;;;;;;;4990658;28;20285;-64
2023/02/11 04:34:47;;;;;;;47.08;19.92;;;;;;;;;;4989458;28;20022;-65
2023/02/11 04:37:13;;;;;;;44.45;14.73;;;;;;;;;;4986361;28;21815;-64
2023/02/11 04:39:38;;;;;;;30.17;12.43;;;;;;;;;;4989328;28;20057;-65
2023/02/11 04:42:03;;;;;;;57.85;20.92;;;;;;;;;;4993078;28;20022;-65
2023/02/11 04:44:28;;;;;;;31.55;13.27;;;;;;;;;;4987020;28;20426;-65
2023/02/11 04:46:53;;;;;;;46.20;16.42;;;;;;;;;;4988355;28;20515;-65
2023/02/11 04:49:19;;;;;;;51.47;23.97;;;;;;;;;;4989330;28;20030;-65
2023/02/11 04:51:44;;;;;;;50.47;20.40;;;;;;;;;;4987439;28;20281;-65
2023/02/11 04:54:10;;;;;;;42.85;14.45;;;;;;;;;;4992265;28;20018;-66
2023/02/11 04:56:35;;;;;;;54.17;19.55;;;;;;;;;;4990642;28;20025;-65
2023/02/11 04:59:01;;;;;;;55.45;21.60;;;;;;;;;;4993646;28;20018;-65
2023/02/11 05:01:26;;;;;;;38.20;17.05;;;;;;;;;;4988834;28;20058;-65
2023/02/11 05:03:51;;;;;;;48.13;20.73;;;;;;;;;;4988500;28;20025;-65
2023/02/11 05:06:16;;;;;;;33.07;13.80;;;;;;;;;;4993186;28;20053;-65
2023/02/11 05:08:42;;;;;;;57.20;21.57;;;;;;;;;;4992352;28;20269;-66
2023/02/11 05:11:12;;;;;;;55.93;22.27;;;;;;;;;;4990543;28;20288;-65
2023/02/11 05:13:37;;;;;;;51.33;20.83;;;;;;;;;;4991624;28;20792;-65
2023/02/11 05:16:03;;;;;;;39.27;13.60;;;;;;;;;;4993293;28;20018;-65
2023/02/11 05:18:28;;;;;;;55.58;22.67;;;;;;;;;;4992690;28;20336;-65
2023/02/11 05:20:53;;;;;;;46.28;14.63;;;;;;;;;;4991943;28;20088;-66
2023/02/11 05:23:18;;;;;;;51.38;20.45;;;;;;;;;;4988763;28;20019;-65
2023/02/11 05:25:43;;;;;;;52.97;22.17;;;;;;;;;;4992922;28;20026;-66
2023/02/11 05:28:09;;;;;;;57.07;22.17;;;;;;;;;;4994043;28;20281;-66
2023/02/11 05:30:34;;;;;;;47.03;21.42;;;;;;;;;;4990300;28;20275;-66
2023/02/11 05:32:59;;;;;;;50.63;20.85;;;;;;;;;;4992461;28;20052;-65
2023/02/11 05:35:24;;;;;;;53.25;22.08;;;;;;;;;;4988759;28;20030;-65
2023/02/11 05:37:50;;;;;;;58.00;21.03;;;;;;;;;;4990494;28;20464;-66
2023/02/11 05:40:15;;;;;;;58.35;23.00;;;;;;;;;;4991068;28;20280;-65
2023/02/11 05:42:40;;;;;;;63.80;24.67;;;;;;;;;;4990586;28;20723;-65
2023/02/11 05:45:05;;;;;;;64.78;22.23;;;;;;;;;;4988080;28;20018;-64
2023/02/11 05:47:31;;;;;;;61.40;24.40;;;;;;;;;;4991001;28;20164;-66
2023/02/11 05:49:56;;;;;;;55.57;21.57;;;;;;;;;;4990962;28;20049;-64
2023/02/11 05:52:21;;;;;;;55.42;20.00;;;;;;;;;;4988101;28;20278;-66
2023/02/11 05:54:47;;;;;;;53.20;22.73;;;;;;;;;;4990701;28;20041;-65
2023/02/11 05:57:12;;;;;;;61.58;22.13;;;;;;;;;;4989535;28;20069;-65
2023/02/11 05:59:37;;;;;;;54.80;22.70;;;;;;;;;;4989780;28;20097;-66
2023/02/11 06:02:02;;;;;;;48.67;20.73;;;;;;;;;;4989667;28;20483;-65
2023/02/11 06:04:28;;;;;;;65.05;23.58;;;;;;;;;;4990083;28;20471;-66
2023/02/11 06:06:53;;;;;;;46.33;17.50;;;;;;;;;;4991757;28;20498;-65
2023/02/11 06:09:18;;;;;;;59.50;21.37;;;;;;;;;;4990478;28;20033;-64
2023/02/11 06:11:43;;;;;;;39.53;15.77;;;;;;;;;;4988772;28;20368;-65
2023/02/11 06:14:09;;;;;;;64.07;25.30;;;;;;;;;;4989860;28;20289;-66
2023/02/11 06:16:34;;;;;;;53.58;19.17;;;;;;;;;;4989870;28;20676;-66
2023/02/11 06:19:00;;;;;;;68.23;25.27;;;;;;;;;;4991747;28;20027;-66
2023/02/11 06:21:25;;;;;;;60.03;23.47;;;;;;;;;;4990059;28;20273;-65
2023/02/11 06:23:50;;;;;;;72.70;27.00;;;;;;;;;;4990038;28;20772;-65
2023/02/11 06:26:17;;;;;;;69.50;25.23;;;;;;;;;;4988825;28;20320;-65
2023/02/11 06:28:42;;;;;;;75.75;28.85;;;;;;;;;;4989422;28;20273;-65
2023/02/11 06:31:08;;;;;;;71.75;28.25;;;;;;;;;;4988278;28;20022;-66
2023/02/11 06:33:34;;;;;;;76.00;28.65;;;;;;;;;;4988465;28;20030;-65
2023/02/11 06:35:59;;;;;;;75.80;33.00;;;;;;;;;;4990640;28;20018;-65
2023/02/11 06:38:24;;;;;;;75.18;32.33;;;;;;;;;;4985620;28;20026;-65
2023/02/11 06:40:49;;;;;;;72.80;29.70;;;;;;;;;;4989581;28;20427;-65
2023/02/11 06:43:15;;;;;;;67.77;29.77;;;;;;;;;;4990467;28;20033;-66
2023/02/11 06:45:40;;;;;;;82.38;31.90;;;;;;;;;;4985562;28;20357;-66
2023/02/11 06:48:05;;;;;;;84.03;32.10;;;;;;;;;;4989517;28;20026;-65
2023/02/11 06:50:30;;;;;;;87.40;33.27;;;;;;;;;;4987082;28;20349;-65
2023/02/11 06:52:57;;;;;;;91.32;33.25;;;;;;;;;;4986886;28;20274;-66
2023/02/11 06:55:22;;;;;;;76.45;29.95;;;;;;;;;;4989686;28;20038;-65
2023/02/11 06:57:47;;;;;;;87.65;32.63;;;;;;;;;;4982565;28;20674;-66
2023/02/11 07:00:13;;;;;;;81.60;31.73;;;;;;;;;;4988516;28;20085;-65
2023/02/11 07:02:38;;;;;;;81.47;32.05;;;;;;;;;;4986389;28;20353;-65
2023/02/11 07:05:04;;;;;;;78.90;30.30;;;;;;;;;;4992762;28;20060;-66
2023/02/11 07:07:31;;;;;;;86.38;33.17;;;;;;;;;;4987335;28;20277;-66
2023/02/11 07:09:56;;;;;;;85.78;29.58;;;;;;;;;;4989853;28;20019;-66
2023/02/11 07:12:21;;;;;;;76.55;31.42;;;;;;;;;;4983866;28;20488;-65
2023/02/11 07:14:46;;;;;;;85.17;30.73;;;;;;;;;;4986342;28;20072;-66
2023/02/11 07:17:12;;;;;;;80.57;30.40;;;;;;;;;;4981192;28;20288;-66
2023/02/11 07:19:37;;;;;;;80.50;29.20;;;;;;;;;;4989915;28;20018;-66
2023/02/11 07:22:02;;;;;;;81.30;36.10;;;;;;;;;;4987020;28;20106;-66
2023/02/11 07:24:27;;;;;;;89.70;34.63;;;;;;;;;;4985237;28;20027;-66
2023/02/11 07:26:52;;;;;;;92.03;30.90;;;;;;;;;;4990456;28;20376;-66
2023/02/11 07:29:18;;;;;;;95.40;35.80;;;;;;;;;;4987313;28;20022;-66
2023/02/11 07:31:43;;;;;;;84.30;34.47;;;;;;;;;;4987327;28;20388;-67
2023/02/11 07:34:08;;;;;;;96.47;35.87;;;;;;;;;;4983113;28;20317;-66
2023/02/11 07:36:34;;;;;;;94.07;33.50;;;;;;;;;;4983446;28;20273;-66
2023/02/11 07:38:59;;;;;;;106.03;38.27;;;;;;;;;;4985293;28;20022;-66
2023/02/11 07:41:24;;;;;;;99.13;37.47;;;;;;;;;;4993201;28;20281;-65
2023/02/11 07:43:50;;;;;;;97.85;35.75;;;;;;;;;;4992406;28;20511;-66
2023/02/11 07:46:22;;;;;;;88.57;32.47;;;;;;;;;;4993323;28;20553;-66
2023/02/11 07:48:47;;;;;;;84.53;30.92;;;;;;;;;;4992166;28;20018;-66
2023/02/11 07:51:16;;;;;;;97.23;32.37;;;;;;;;;;4994158;28;20499;-66
2023/02/11 07:53:41;;;;;;;101.85;33.53;;;;;;;;;;4995567;28;20408;-66
2023/02/11 07:56:07;;;;;;;99.97;36.65;;;;;;;;;;4988432;28;20507;-67
2023/02/11 07:58:32;;;;;;;97.82;34.55;;;;;;;;;;4992288;28;20399;-66
2023/02/11 08:01:01;;;;;;;99.60;32.75;;;;;;;;;;4991702;28;20030;-66
2023/02/11 08:03:27;;;;;;;94.00;32.20;;;;;;;;;;4990370;28;20057;-66
2023/02/11 08:05:53;;;;;;;96.35;36.10;;;;;;;;;;4991908;28;20483;-66
2023/02/11 08:08:18;;;;;;;101.57;34.25;;;;;;;;;;4989855;28;20034;-65
2023/02/11 08:10:43;;;;;;;101.20;42.65;;;;;;;;;;4975456;28;20023;-66
2023/02/11 08:13:08;;;;;;;92.65;33.55;;;;;;;;;;4990860;28;20026;-66
2023/02/11 08:15:33;;;;;;;105.77;36.07;;;;;;;;;;4985895;28;20030;-64
2023/02/11 08:17:58;;;;;;;90.33;34.40;;;;;;;;;;4989944;28;20283;-66
2023/02/11 08:20:24;;;;;;;108.10;32.93;;;;;;;;;;4990925;28;20285;-67
2023/02/11 08:22:49;;;;;;;111.40;35.65;;;;;;;;;;4990045;28;20356;-66
2023/02/11 08:25:14;;;;;;;102.03;40.40;;;;;;;;;;4998084;28;20048;-64
2023/02/11 08:27:39;;;;;;;100.13;33.35;;;;;;;;;;4995840;28;20685;-67
2023/02/11 08:30:05;;;;;;;104.37;34.60;;;;;;;;;;4993667;28;20694;-67
2023/02/11 08:32:30;;;;;;;123.40;40.63;;;;;;;;;;4996411;28;20361;-67
2023/02/11 08:34:55;;;;;;;113.13;40.97;;;;;;;;;;4992879;28;20100;-66
2023/02/11 08:37:21;;;;;;;135.57;44.87;;;;;;;;;;4994503;28;20022;-66
2023/02/11 08:39:46;;;;;;;91.22;29.42;;;;;;;;;;4994898;28;20295;-66
2023/02/11 08:42:12;;;;;;;129.38;47.15;;;;;;;;;;4998173;28;20518;-66
2023/02/11 08:44:37;;;;;;;122.68;44.75;;;;;;;;;;4994829;28;20134;-66
2023/02/11 08:47:02;;;;;;;120.63;43.70;;;;;;;;;;4998602;28;20030;-66
2023/02/11 08:49:29;;;;;;;118.47;42.35;;;;;;;;;;4994975;28;20023;-66
2023/02/11 08:51:55;;;;;;;134.45;43.78;;;;;;;;;;4988652;28;20096;-65
2023/02/11 08:54:20;;;;;;;109.00;40.53;;;;;;;;;;4988044;28;20586;-67
2023/02/11 08:56:49;;;;;;;112.03;42.27;;;;;;;;;;4992843;28;20041;-67
2023/02/11 08:59:16;;;;;;;100.63;39.95;;;;;;;;;;4991719;28;20762;-65
2023/02/11 09:01:42;;;;;;;120.75;40.90;;;;;;;;;;4974969;28;20022;-66
2023/02/11 09:04:08;;;;;;;100.63;36.13;;;;;;;;;;4989263;28;20022;-66
2023/02/11 09:06:33;;;;;;;107.78;35.70;;;;;;;;;;4986892;28;20372;-66
2023/02/11 09:08:58;;;;;;;112.68;38.75;;;;;;;;;;4991103;28;20023;-66
2023/02/11 09:11:26;;;;;;;108.82;38.78;;;;;;;;;;4992736;28;20587;-66
2023/02/11 09:13:51;;;;;;;113.35;36.35;;;;;;;;;;4992444;28;20038;-66
2023/02/11 09:16:18;;;;;;;105.43;40.23;;;;;;;;;;4996615;28;20021;-66
2023/02/11 09:18:44;;;;;;;114.95;39.22;;;;;;;;;;4993085;28;20278;-66
2023/02/11 09:21:09;;;;;;;103.25;35.30;;;;;;;;;;4995832;28;20058;-66
2023/02/11 09:23:35;;;;;;;110.50;36.25;;;;;;;;;;4990645;28;20057;-65
2023/02/11 09:26:07;;;;;;;109.63;33.08;;;;;;;;;;4988107;28;20022;-66
2023/02/11 09:28:32;;;;;;;100.90;34.45;;;;;;;;;;4989572;28;20022;-66
2023/02/11 09:30:57;;;;;;;110.87;37.57;;;;;;;;;;4993929;28;20032;-65
2023/02/11 09:33:23;;;;;;;99.73;33.77;;;;;;;;;;4992605;28;20250;-66
2023/02/11 09:35:48;;;;;;;104.53;38.05;;;;;;;;;;4991864;28;20286;-66
2023/02/11 09:38:13;;;;;;;107.17;36.83;;;;;;;;;;4990141;28;20014;-66
2023/02/11 09:40:42;;;;;;;93.53;31.27;;;;;;;;;;4990036;28;20308;-65
2023/02/11 09:43:15;;;;;;;97.07;33.40;;;;;;;;;;4991270;28;20017;-66
2023/02/11 09:45:41;;;;;;;97.57;33.78;;;;;;;;;;4991151;28;20021;-65
2023/02/11 09:48:07;;;;;;;98.32;36.60;;;;;;;;;;4990542;28;20038;-65
2023/02/11 09:50:38;;;;;;;102.32;32.50;;;;;;;;;;4990955;28;20060;-65
2023/02/11 09:53:10;;;;;;;98.78;32.70;;;;;;;;;;4991456;28;20027;-65
2023/02/11 09:55:40;;;;;;;96.63;31.95;;;;;;;;;;4990557;28;20360;-65
2023/02/11 09:58:13;;;;;;;88.57;32.03;;;;;;;;;;4989308;28;20019;-65
2023/02/11 10:00:47;;;;;;;88.10;32.30;;;;;;;;;;4991917;28;20035;-65
2023/02/11 10:03:20;;;;;;;103.82;36.42;;;;;;;;;;4989882;28;20525;-66
2023/02/11 10:06:04;;;;;;;99.32;34.47;;;;;;;;;;4987286;28;20034;-65
2023/02/11 10:08:29;;;;;;;92.40;33.75;;;;;;;;;;4986416;28;20423;-65
2023/02/11 10:11:07;;;;;;;98.90;35.88;;;;;;;;;;4990018;28;20033;-65
2023/02/11 10:13:41;;;;;;;87.03;35.00;;;;;;;;;;4983380;28;20762;-65
2023/02/11 10:16:15;;;;;;;81.95;32.70;;;;;;;;;;4985119;28;20030;-65
2023/02/11 10:19:10;;;;;;;91.60;32.78;;;;;;;;;;4989321;28;20549;-65
2023/02/11 10:21:50;;;;;;;78.40;31.33;;;;;;;;;;4984281;28;20102;-65
2023/02/11 10:24:16;;;;;;;85.55;30.80;;;;;;;;;;4986124;28;20034;-65
2023/02/11 10:26:42;;;;;;;88.80;34.20;;;;;;;;;;4987084;28;20026;-66
2023/02/11 10:29:23;;;;;;;92.15;35.10;;;;;;;;;;4990143;28;20099;-65
2023/02/11 10:31:49;;;;;;;92.00;34.15;;;;;;;;;;4991673;28;20411;-65
2023/02/11 10:34:14;;;;;;;86.20;34.17;;;;;;;;;;4991353;28;20022;-65
2023/02/11 10:36:41;;;;;;;98.00;36.67;;;;;;;;;;4989662;28;20026;-65
2023/02/11 10:39:12;;;;;;;91.20;35.22;;;;;;;;;;4990162;28;20034;-66
2023/02/11 10:41:40;;;;;;;89.28;34.35;;;;;;;;;;4991142;28;20097;-66
2023/02/11 10:44:06;;;;;;;98.93;40.92;;;;;;;;;;4991374;28;20029;-65
2023/02/11 10:46:33;;;;;;;96.43;37.40;;;;;;;;;;4990307;28;20018;-65
2023/02/11 10:48:58;;;;;;;96.53;37.78;;;;;;;;;;4991282;28;20105;-66
2023/02/11 10:51:25;;;;;;;99.35;37.58;;;;;;;;;;4991539;28;20098;-65
2023/02/11 10:54:12;;;;;;;90.78;36.13;;;;;;;;;;4989359;28;20049;-65
2023/02/11 10:56:53;;;;;;;83.57;33.50;;;;;;;;;;4988119;28;20034;-65
2023/02/11 10:59:24;;;;;;;88.60;33.20;;;;;;;;;;4987850;28;20054;-65
2023/02/11 11:01:52;;;;;;;82.35;32.42;;;;;;;;;;4988672;28;20018;-65
2023/02/11 11:04:40;;;;;;;88.45;33.58;;;;;;;;;;4986769;28;20023;-65
2023/02/11 11:07:32;;;;;;;95.78;35.88;;;;;;;;;;4981488;28;20046;-65
2023/02/11 11:10:01;;;;;;;83.82;34.45;;;;;;;;;;4986250;28;20042;-65
2023/02/11 11:12:46;;;;;;;88.43;35.20;;;;;;;;;;4986921;28;20026;-66
2023/02/11 11:15:22;;;;;;;88.30;36.28;;;;;;;;;;4985976;28;20030;-66
2023/02/11 11:17:48;;;;;;;86.07;34.72;;;;;;;;;;4988909;28;20459;-66
2023/02/11 11:20:14;;;;;;;83.80;33.70;;;;;;;;;;4989459;28;20018;-66
2023/02/11 11:22:40;;;;;;;80.68;32.28;;;;;;;;;;4988787;28;20029;-66
2023/02/11 11:25:05;;;;;;;83.10;35.78;;;;;;;;;;4982099;28;20840;-66
2023/02/11 11:27:30;;;;;;;80.97;32.35;;;;;;;;;;4986636;28;20572;-66
2023/02/11 11:29:55;;;;;;;91.13;32.83;;;;;;;;;;4987380;28;20607;-66
2023/02/11 11:32:23;;;;;;;80.63;33.47;;;;;;;;;;4985351;28;20578;-67
2023/02/11 11:34:50;;;;;;;79.45;34.92;;;;;;;;;;4987371;28;20097;-65
2023/02/11 11:37:44;;;;;;;76.00;30.83;;;;;;;;;;4987566;28;20034;-66
2023/02/11 11:40:15;;;;;;;92.72;31.90;;;;;;;;;;4975495;28;20129;-66
2023/02/11 11:42:41;;;;;;;84.72;36.92;;;;;;;;;;4988644;28;20557;-66
2023/02/11 11:45:18;;;;;;;76.63;30.98;;;;;;;;;;4988125;28;20113;-66
2023/02/11 11:47:46;;;;;;;81.85;33.00;;;;;;;;;;4982008;28;20097;-66
2023/02/11 11:50:20;;;;;;;83.47;29.48;;;;;;;;;;4986413;28;20033;-65
2023/02/11 11:52:49;;;;;;;88.50;40.75;;;;;;;;;;4987821;28;20638;-65
2023/02/11 11:55:23;;;;;;;77.03;29.42;;;;;;;;;;4987179;28;20526;-65
2023/02/11 11:57:48;;;;;;;87.82;36.30;;;;;;;;;;4988865;28;20068;-65
2023/02/11 12:00:22;;;;;;;84.57;37.00;;;;;;;;;;4989805;28;20010;-65
2023/02/11 12:02:50;;;;;;;84.53;32.80;;;;;;;;;;4986454;28;20121;-65
2023/02/11 12:05:25;;;;;;;83.63;31.30;;;;;;;;;;4987450;28;20026;-65
2023/02/11 12:07:56;;;;;;;77.15;32.53;;;;;;;;;;4990127;28;20053;-66
2023/02/11 12:10:24;;;;;;;82.03;34.72;;;;;;;;;;4984024;28;20025;-65
2023/02/11 12:12:58;;;;;;;84.25;30.63;;;;;;;;;;4988053;28;20030;-65
2023/02/11 12:15:32;;;;;;;88.75;31.55;;;;;;;;;;4983417;28;20404;-65
2023/02/11 12:18:00;;;;;;;75.93;28.80;;;;;;;;;;4987048;28;20019;-65
2023/02/11 12:20:28;;;;;;;83.75;32.80;;;;;;;;;;4987880;28;20022;-64
2023/02/11 12:22:56;;;;;;;73.78;29.33;;;;;;;;;;4987665;28;20030;-65
2023/02/11 12:25:21;;;;;;;82.65;31.35;;;;;;;;;;4982080;28;20026;-66
2023/02/11 12:27:55;;;;;;;78.05;31.63;;;;;;;;;;4987345;28;20023;-65
2023/02/11 12:30:20;;;;;;;80.82;31.73;;;;;;;;;;4990877;28;20269;-65
2023/02/11 12:33:04;;;;;;;87.90;42.53;;;;;;;;;;4989621;28;20072;-65
2023/02/11 12:35:46;;;;;;;88.18;35.10;;;;;;;;;;4988675;28;20391;-65
2023/02/11 12:38:21;;;;;;;96.05;34.83;;;;;;;;;;4990692;28;20415;-66
2023/02/11 12:40:56;;;;;;;90.70;33.60;;;;;;;;;;4991619;28;20387;-65
2023/02/11 12:43:23;;;;;;;88.20;33.53;;;;;;;;;;4980284;28;20014;-65
2023/02/11 12:45:54;;;;;;;94.28;40.08;;;;;;;;;;4988624;28;20052;-65
2023/02/11 12:48:44;;;;;;;88.43;32.95;;;;;;;;;;4991679;28;20104;-65
2023/02/11 12:51:18;;;;;;;104.55;38.08;;;;;;;;;;4991503;28;20022;-64
2023/02/11 12:53:59;;;;;;;94.30;34.70;;;;;;;;;;4992015;28;20378;-65
2023/02/11 12:56:35;;;;;;;83.50;31.42;;;;;;;;;;4987431;28;20034;-65
2023/02/11 12:59:00;;;;;;;95.78;36.97;;;;;;;;;;4990546;28;20018;-65
2023/02/11 13:01:28;;;;;;;92.05;31.90;;;;;;;;;;4987694;28;20030;-65
2023/02/11 13:04:05;;;;;;;94.00;36.00;;;;;;;;;;4989285;28;20031;-65
2023/02/11 13:06:42;;;;;;;90.63;33.60;;;;;;;;;;4987777;28;20030;-65
2023/02/11 13:09:17;;;;;;;97.47;40.33;;;;;;;;;;4973409;28;20651;-65
2023/02/11 13:11:50;;;;;;;97.00;39.25;;;;;;;;;;4992064;28;20026;-64
2023/02/11 13:14:27;;;;;;;89.47;31.85;;;;;;;;;;4989220;28;20551;-65
2023/02/11 13:16:53;;;;;;;105.97;39.17;;;;;;;;;;4991745;28;20482;-64
2023/02/11 13:19:26;;;;;;;98.90;39.97;;;;;;;;;;4974831;28;20399;-65
2023/02/11 13:22:06;;;;;;;103.07;41.22;;;;;;;;;;4989969;28;20448;-64
2023/02/11 13:24:31;;;;;;;;;;;;;;;;;;4991222;28;20153;-65
2023/02/11 13:27:00;;;;;;;101.57;42.30;;;;;;;;;;4990078;28;19933;-65
2023/02/11 13:29:44;;;;;;;90.65;33.38;;;;;;;;;;4991861;28;20406;-65
2023/02/11 13:32:11;;;;;;;89.05;33.35;;;;;;;;;;4991438;28;20030;-64
2023/02/11 13:34:53;;;;;;;104.53;38.00;;;;;;;;;;4991009;28;20034;-65
2023/02/11 13:37:22;;;;;;;100.82;34.38;;;;;;;;;;4990378;28;20460;-64
2023/02/11 13:40:02;;;;;;;97.35;41.55;;;;;;;;;;4991747;28;20014;-65
2023/02/11 13:42:28;;;;;;;98.23;36.57;;;;;;;;;;4983679;28;20399;-65
2023/02/11 13:44:53;;;;;;;98.80;34.35;;;;;;;;;;4990705;28;20026;-65
2023/02/11 13:47:25;;;;;;;100.72;36.00;;;;;;;;;;4990805;28;20026;-65
2023/02/11 13:49:52;;;;;;;87.03;33.78;;;;;;;;;;4986167;28;20057;-66
2023/02/11 13:52:22;;;;;;;98.63;36.83;;;;;;;;;;4987085;28;20048;-65
2023/02/11 13:54:49;;;;;;;93.47;37.50;;;;;;;;;;4987428;28;20022;-66
2023/02/11 13:57:21;;;;;;;91.72;33.00;;;;;;;;;;4990265;28;20503;-66
2023/02/11 13:59:50;;;;;;;89.22;34.20;;;;;;;;;;4987759;28;20023;-66
2023/02/11 14:10:50;;;;;;;107.78;39.17;;;;;;;;;;4981009;28;20064;-66
2023/02/11 14:13:31;;;;;;;103.63;35.92;;;;;;;;;;4987260;28;20406;-66
2023/02/11 14:16:10;;;;;;;100.95;40.50;;;;;;;;;;4990151;28;20022;-66
2023/02/11 14:18:44;;;;;;;100.22;39.95;;;;;;;;;;4991202;28;20042;-66
2023/02/11 14:21:12;;;;;;;89.53;33.58;;;;;;;;;;4987765;28;20057;-66
2023/02/11 14:23:37;;;;;;;106.63;41.03;;;;;;;;;;4988834;28;20027;-66
2023/02/11 14:26:11;;;;;;;104.00;34.30;;;;;;;;;;4990146;28;20026;-66
2023/02/11 14:28:37;;;;;;;102.88;39.40;;;;;;;;;;4989774;28;20204;-66
2023/02/11 14:31:08;;;;;;;104.13;34.75;;;;;;;;;;4990566;28;20416;-66
2023/02/11 14:33:52;;;;;;;102.70;38.80;;;;;;;;;;4990006;28;20418;-66